Time;durP1;ratioP1;P1;durP2;ratioP2;P2;SDS_P1;SDS_P2;PMS_P1;PMS_P2;Temp;Humidity;BMP_temperature;BMP_pressure;BME280_temperature;BME280_humidity;BME280_pressure;Samples;Min_cycle;Max_cycle;Signal;HPM_P1;HPM_P2
2022/07/27 00:01:05;;;;;;;2.65;0.95;;;16.70;1.00;;;;;;5018098;28;20712;-84
2022/07/27 00:03:31;;;;;;;3.05;1.02;;;16.20;1.00;;;;;;5018906;28;20184;-85
2022/07/27 00:05:56;;;;;;;3.17;1.15;;;15.50;99.90;;;;;;5018410;28;20561;-85
2022/07/27 00:08:22;;;;;;;3.03;1.20;;;16.70;99.90;;;;;;5018199;28;20180;-84
2022/07/27 00:10:49;;;;;;;4.90;0.95;;;16.70;51.80;;;;;;5015984;28;20674;-85
2022/07/27 00:13:15;;;;;;;2.83;0.93;;;15.40;99.90;;;;;;5026017;28;20191;-85
2022/07/27 00:15:41;;;;;;;4.57;1.10;;;15.20;99.90;;;;;;5018272;28;20223;-86
2022/07/27 00:18:06;;;;;;;3.83;0.80;;;16.00;99.90;;;;;;5016835;28;20179;-85
2022/07/27 00:20:32;;;;;;;2.63;0.80;;;16.70;99.90;;;;;;5016771;28;20179;-84
2022/07/27 00:22:58;;;;;;;3.63;1.00;;;15.70;99.90;;;;;;5017294;28;20249;-85
2022/07/27 00:25:26;;;;;;;3.33;1.02;;;15.10;99.90;;;;;;5016596;28;20203;-84
2022/07/27 00:27:52;;;;;;;4.43;1.00;;;15.80;99.90;;;;;;5025179;28;20192;-84
2022/07/27 00:30:18;;;;;;;4.53;1.00;;;15.30;99.90;;;;;;5016258;28;20206;-85
2022/07/27 00:32:44;;;;;;;4.22;1.02;;;15.50;1.00;;;;;;5016151;28;20212;-85
2022/07/27 00:35:10;;;;;;;3.78;0.93;;;15.60;1.00;;;;;;5015405;28;20210;-86
2022/07/27 00:37:35;;;;;;;3.85;1.02;;;15.50;1.00;;;;;;5015473;28;20176;-85
2022/07/27 00:40:01;;;;;;;4.05;1.20;;;15.50;1.00;;;;;;5015439;28;20542;-84
2022/07/27 00:42:27;;;;;;;3.17;0.80;;;15.40;1.00;;;;;;5015756;28;20226;-86
2022/07/27 00:44:54;;;;;;;5.20;1.15;;;14.60;1.00;;;;;;5014768;28;20179;-86
2022/07/27 00:47:20;;;;;;;4.90;1.13;;;15.00;1.00;;;;;;5026094;28;20259;-86
2022/07/27 00:49:46;;;;;;;2.78;1.25;;;14.70;1.00;;;;;;5015821;28;20183;-85
2022/07/27 00:52:12;;;;;;;6.18;1.10;;;15.00;1.00;;;;;;5015826;28;20199;-86
2022/07/27 00:54:39;;;;;;;3.75;1.20;;;14.70;1.00;;;;;;5025251;28;20207;-84
2022/07/27 00:57:05;;;;;;;3.08;0.75;;;16.00;1.00;;;;;;5016177;28;20180;-85
2022/07/27 00:59:31;;;;;;;6.00;1.75;;;16.00;1.00;;;;;;5015395;28;20278;-86
2022/07/27 01:01:57;;;;;;;2.50;0.90;;;14.70;1.00;;;;;;5017174;28;20222;-85
2022/07/27 01:04:22;;;;;;;2.55;0.80;;;15.70;1.00;;;;;;5015809;28;20184;-87
2022/07/27 01:06:48;;;;;;;3.63;1.02;;;16.00;1.00;;;;;;5016694;28;20325;-86
2022/07/27 01:11:58;;;;;;;10.88;2.70;;;14.60;1.00;;;;;;5016900;28;20214;-86
2022/07/27 01:14:24;;;;;;;3.13;1.00;;;15.80;1.00;;;;;;5015677;28;20180;-86
2022/07/27 01:16:50;;;;;;;2.80;0.95;;;15.20;1.00;;;;;;5015723;28;20634;-85
2022/07/27 01:19:16;;;;;;;3.58;1.38;;;14.50;1.00;;;;;;5015083;28;20412;-86
2022/07/27 01:21:42;;;;;;;3.55;1.17;;;15.80;1.00;;;;;;5015621;28;20203;-86
2022/07/27 01:24:08;;;;;;;2.08;1.05;;;14.50;1.00;;;;;;5017290;28;20202;-85
2022/07/27 01:26:35;;;;;;;3.13;0.95;;;14.80;1.00;;;;;;5015646;28;20220;-85
2022/07/27 01:29:01;;;;;;;3.20;1.30;;;14.50;1.00;;;;;;5014796;28;20181;-85
2022/07/27 01:31:27;;;;;;;3.17;1.23;;;15.90;1.00;;;;;;5015839;28;20207;-85
2022/07/27 01:33:53;;;;;;;4.55;0.90;;;16.10;1.00;;;;;;5014410;28;20195;-86
2022/07/27 01:36:19;;;;;;;2.38;0.70;;;15.50;1.00;;;;;;5014877;28;20199;-86
2022/07/27 01:38:45;;;;;;;4.30;1.00;;;14.50;1.00;;;;;;5013917;28;20187;-85
2022/07/27 01:41:10;;;;;;;4.07;1.30;;;14.30;1.00;;;;;;5014836;28;20626;-84
2022/07/27 01:43:36;;;;;;;3.85;1.15;;;15.50;1.00;;;;;;5014082;28;20244;-84
2022/07/27 01:46:02;;;;;;;1.92;0.90;;;14.50;1.00;;;;;;5014728;28;20184;-85
2022/07/27 01:48:28;;;;;;;2.53;0.90;;;15.30;1.00;;;;;;5013974;28;20309;-88
2022/07/27 01:50:53;;;;;;;5.45;1.58;;;14.20;1.00;;;;;;5024069;28;20750;-87
2022/07/27 01:53:20;;;;;;;4.57;1.00;;;15.60;1.00;;;;;;5016932;28;20178;-85
2022/07/27 01:55:47;;;;;;;4.50;0.93;;;14.80;1.00;;;;;;5017747;28;20215;-85
2022/07/27 01:58:13;;;;;;;2.00;0.80;;;14.90;1.00;;;;;;5019124;28;20187;-84
2022/07/27 02:00:39;;;;;;;3.38;1.10;;;14.00;1.00;;;;;;5019165;28;20180;-85
2022/07/27 02:03:06;;;;;;;1.52;0.93;;;14.50;1.00;;;;;;5019716;28;20211;-86
2022/07/27 02:05:32;;;;;;;3.42;1.00;;;14.50;1.00;;;;;;5019450;28;20231;-85
2022/07/27 02:07:58;;;;;;;4.15;1.02;;;14.70;1.00;;;;;;5017955;28;20187;-87
2022/07/27 02:10:24;;;;;;;2.65;1.00;;;15.20;1.00;;;;;;5019179;28;20194;-85
2022/07/27 02:12:50;;;;;;;3.95;1.13;;;15.00;1.00;;;;;;5019853;28;20211;-85
2022/07/27 02:15:21;;;;;;;3.30;1.15;;;15.30;1.00;;;;;;5018284;28;20266;-85
2022/07/27 02:17:48;;;;;;;2.00;1.00;;;13.80;1.00;;;;;;5017951;28;20182;-85
2022/07/27 02:20:15;;;;;;;1.65;0.80;;;14.20;1.00;;;;;;5007702;28;20180;-85
2022/07/27 02:22:42;;;;;;;1.45;0.80;;;14.80;1.00;;;;;;5026311;28;20226;-85
2022/07/27 02:25:09;;;;;;;3.25;1.00;;;15.10;1.00;;;;;;5017917;28;20213;-85
2022/07/27 02:27:35;;;;;;;3.03;0.80;;;14.20;1.00;;;;;;5019437;28;20184;-86
2022/07/27 02:30:01;;;;;;;2.38;1.10;;;15.00;1.00;;;;;;5017591;28;20643;-85
2022/07/27 02:32:27;;;;;;;4.82;1.13;;;14.50;1.00;;;;;;5018962;28;20199;-84
2022/07/27 02:34:53;;;;;;;3.83;0.90;;;14.80;1.00;;;;;;5018296;28;20204;-85
2022/07/27 02:37:18;;;;;;;2.95;0.98;;;14.10;1.00;;;;;;5035723;28;20255;-85
2022/07/27 02:39:44;;;;;;;2.55;1.20;;;14.70;1.00;;;;;;5017314;28;20557;-85
2022/07/27 02:42:09;;;;;;;3.15;1.23;;;13.20;1.00;;;;;;5018971;28;20195;-87
2022/07/27 02:44:35;;;;;;;4.30;1.15;;;14.60;1.00;;;;;;5018289;28;20192;-85
2022/07/27 02:47:01;;;;;;;2.92;0.80;;;14.00;1.00;;;;;;5017734;28;20234;-84
2022/07/27 02:49:26;;;;;;;2.80;1.08;;;13.00;1.00;;;;;;5017085;28;20191;-85
2022/07/27 02:51:53;;;;;;;4.15;1.20;;;13.00;4.10;;;;;;5015523;28;20222;-85
2022/07/27 02:54:23;;;;;;;3.78;1.02;;;13.60;1.00;;;;;;5015641;28;20184;-85
2022/07/27 02:56:50;;;;;;;5.25;0.90;;;14.10;5.70;;;;;;5009427;28;20654;-83
2022/07/27 02:59:17;;;;;;;3.70;0.90;;;12.90;6.30;;;;;;5013491;28;20183;-85
2022/07/27 03:01:43;;;;;;;2.88;1.05;;;13.00;8.60;;;;;;4999014;28;20777;-86
2022/07/27 03:04:10;;;;;;;2.78;1.20;;;13.10;4.10;;;;;;5015627;28;20183;-85
2022/07/27 03:06:35;;;;;;;3.15;0.88;;;12.90;7.80;;;;;;5015383;28;20226;-85
2022/07/27 03:09:02;;;;;;;3.53;1.10;;;13.10;11.60;;;;;;5014041;28;20192;-85
2022/07/27 03:11:28;;;;;;;4.20;1.55;;;12.90;12.00;;;;;;5012755;28;20823;-85
2022/07/27 03:13:53;;;;;;;2.85;0.90;;;13.00;1.60;;;;;;5013454;28;20191;-85
2022/07/27 03:16:19;;;;;;;2.38;0.80;;;12.90;14.10;;;;;;5014411;28;20203;-86
2022/07/27 03:18:44;;;;;;;3.08;1.15;;;14.10;21.40;;;;;;5013198;28;20233;-87
2022/07/27 03:21:10;;;;;;;2.85;0.90;;;13.80;18.60;;;;;;5014448;28;20202;-85
2022/07/27 03:23:36;;;;;;;3.67;1.08;;;14.10;28.80;;;;;;5012836;28;20187;-86
2022/07/27 03:26:01;;;;;;;3.30;1.00;;;14.10;26.70;;;;;;5014629;28;20191;-85
2022/07/27 03:28:27;;;;;;;2.58;0.90;;;12.90;20.00;;;;;;5013282;28;20278;-85
2022/07/27 03:30:52;;;;;;;4.28;1.10;;;12.90;21.40;;;;;;5012588;28;20207;-87
2022/07/27 03:33:18;;;;;;;2.95;1.02;;;12.90;21.10;;;;;;5014358;28;20645;-85
2022/07/27 03:35:43;;;;;;;4.30;1.02;;;14.20;11.40;;;;;;5013448;28;20250;-87
2022/07/27 03:38:09;;;;;;;2.85;1.40;;;12.90;13.50;;;;;;5012207;28;20682;-86
2022/07/27 03:40:35;;;;;;;2.67;1.20;;;12.90;19.00;;;;;;5012477;28;20184;-87
2022/07/27 03:43:00;;;;;;;2.47;0.93;;;12.90;23.10;;;;;;5012321;28;20727;-86
2022/07/27 03:45:26;;;;;;;4.20;1.30;;;12.80;19.50;;;;;;5012194;28;20566;-87
2022/07/27 03:47:52;;;;;;;4.82;1.33;;;12.70;34.70;;;;;;5011403;28;20295;-85
2022/07/27 03:50:18;;;;;;;3.45;0.98;;;12.80;42.70;;;;;;5010833;28;20334;-85
2022/07/27 03:52:44;;;;;;;4.78;1.15;;;12.80;36.00;;;;;;5010193;28;20210;-85
2022/07/27 03:55:09;;;;;;;3.40;1.30;;;13.90;32.30;;;;;;5012392;28;20203;-86
2022/07/27 03:57:35;;;;;;;3.90;1.40;;;12.90;20.20;;;;;;5013324;28;20176;-86
2022/07/27 04:00:01;;;;;;;2.65;1.20;;;13.80;24.80;;;;;;5011794;28;20184;-84
2022/07/27 04:02:27;;;;;;;3.20;1.02;;;13.00;21.90;;;;;;5020407;28;20290;-85
2022/07/27 04:04:52;;;;;;;3.40;1.00;;;13.10;15.70;;;;;;5011912;28;20191;-85
2022/07/27 04:07:18;;;;;;;3.08;1.20;;;13.10;19.90;;;;;;5012460;28;20219;-85
2022/07/27 04:09:43;;;;;;;2.63;1.00;;;13.10;18.10;;;;;;5012503;28;20210;-85
2022/07/27 04:12:09;;;;;;;3.20;1.20;;;14.40;22.80;;;;;;5012078;28;20199;-85
2022/07/27 04:14:34;;;;;;;1.42;1.10;;;14.00;18.50;;;;;;5011812;28;20211;-85
2022/07/27 04:17:00;;;;;;;2.88;1.05;;;13.30;4.10;;;;;;5012093;28;20175;-86
2022/07/27 04:19:26;;;;;;;1.88;0.90;;;13.40;1.00;;;;;;5012132;28;20662;-85
2022/07/27 04:21:51;;;;;;;4.57;1.20;;;13.50;1.00;;;;;;5013100;28;21037;-85
2022/07/27 04:24:17;;;;;;;2.05;0.93;;;14.20;1.00;;;;;;5010465;28;20199;-85
2022/07/27 04:26:42;;;;;;;4.68;1.02;;;13.70;1.00;;;;;;5012930;28;20279;-87
2022/07/27 04:29:08;;;;;;;5.18;1.10;;;13.80;1.00;;;;;;5011895;28;20171;-85
2022/07/27 04:31:33;;;;;;;3.35;1.38;;;15.10;1.00;;;;;;5012518;28;20203;-86
2022/07/27 04:33:59;;;;;;;1.52;0.90;;;13.90;1.00;;;;;;5013606;28;20211;-88
2022/07/27 04:36:24;;;;;;;2.45;1.10;;;14.00;1.00;;;;;;5019692;28;20215;-85
2022/07/27 04:38:50;;;;;;;1.73;0.85;;;15.00;1.00;;;;;;5011248;28;20540;-87
2022/07/27 04:41:16;;;;;;;3.92;1.05;;;14.00;1.00;;;;;;5011659;28;20200;-85
2022/07/27 04:43:41;;;;;;;2.45;0.90;;;15.40;1.00;;;;;;5011354;28;20175;-86
2022/07/27 04:46:07;;;;;;;2.10;0.90;;;14.10;1.00;;;;;;5012800;28;20595;-86
2022/07/27 04:48:33;;;;;;;4.00;1.60;;;15.20;1.00;;;;;;5012742;28;20234;-86
2022/07/27 04:50:58;;;;;;;4.22;1.17;;;14.40;1.00;;;;;;5022868;28;20210;-86
2022/07/27 04:53:24;;;;;;;2.90;0.88;;;14.50;1.00;;;;;;5014697;28;20191;-86
2022/07/27 04:55:50;;;;;;;4.47;1.20;;;14.60;1.00;;;;;;5015436;28;20199;-86
2022/07/27 04:58:16;;;;;;;3.70;0.98;;;14.60;1.00;;;;;;5014099;28;20263;-86
2022/07/27 05:00:45;;;;;;;2.63;1.02;;;15.90;1.00;;;;;;5014051;28;20259;-85
2022/07/27 05:03:11;;;;;;;4.03;1.00;;;15.60;1.00;;;;;;5012903;28;20186;-86
2022/07/27 05:05:36;;;;;;;3.40;1.13;;;15.70;1.00;;;;;;5014174;28;20183;-86
2022/07/27 05:08:02;;;;;;;3.63;1.17;;;15.20;1.00;;;;;;5013347;28;20210;-86
2022/07/27 05:10:28;;;;;;;1.85;1.20;;;15.30;1.00;;;;;;5012655;28;20211;-87
2022/07/27 05:12:54;;;;;;;4.10;1.10;;;15.70;1.00;;;;;;5010400;28;20556;-87
2022/07/27 05:15:20;;;;;;;2.33;0.93;;;17.20;1.00;;;;;;5008639;28;20215;-88
2022/07/27 05:17:46;;;;;;;2.47;0.90;;;16.70;1.00;;;;;;5013093;28;20179;-87
2022/07/27 05:20:12;;;;;;;1.70;1.00;;;18.30;99.90;;;;;;5011972;28;20230;-86
2022/07/27 05:22:37;;;;;;;4.28;1.10;;;18.70;1.00;;;;;;5020007;28;20207;-88
2022/07/27 05:25:04;;;;;;;3.53;1.20;;;19.20;1.00;;;;;;5014610;28;20208;-88
2022/07/27 05:27:30;;;;;;;2.55;0.77;;;18.90;99.90;;;;;;5017493;28;20654;-86
2022/07/27 05:29:56;;;;;;;2.70;1.20;;;19.70;1.00;;;;;;5017494;28;20234;-86
2022/07/27 05:32:22;;;;;;;2.25;0.98;;;19.10;99.90;;;;;;5024584;28;20203;-87
2022/07/27 05:34:47;;;;;;;2.47;0.82;;;18.30;99.90;;;;;;5017742;28;20578;-87
2022/07/27 05:37:13;;;;;;;4.53;0.90;;;18.10;99.90;;;;;;5019123;28;20207;-87
2022/07/27 05:39:41;;;;;;;2.30;0.90;;;18.00;1.00;;;;;;5017619;28;20186;-89
2022/07/27 05:42:07;;;;;;;4.13;0.82;;;18.30;1.00;;;;;;5017385;28;20207;-86
2022/07/27 05:44:33;;;;;;;3.05;1.17;;;19.10;99.90;;;;;;5025378;28;20210;-87
2022/07/27 05:46:59;;;;;;;2.97;1.00;;;18.30;1.00;;;;;;5017457;28;20668;-86
2022/07/27 05:49:24;;;;;;;3.00;1.10;;;18.70;1.00;;;;;;5016628;28;20190;-86
2022/07/27 05:51:50;;;;;;;2.65;0.90;;;19.20;1.00;;;;;;5017428;28;20207;-86
2022/07/27 05:54:15;;;;;;;3.75;0.88;;;19.20;99.90;;;;;;5017275;28;20230;-87
2022/07/27 05:56:41;;;;;;;2.42;0.85;;;20.00;51.00;;;;;;5016732;28;20254;-86
2022/07/27 05:59:07;;;;;;;3.35;0.98;;;19.80;99.90;;;;;;5017895;28;20179;-85
2022/07/27 06:01:32;;;;;;;2.58;0.90;;;19.30;99.90;;;;;;5016960;28;20208;-85
2022/07/27 06:03:59;;;;;;;3.33;0.88;;;19.50;1.00;;;;;;5013056;28;20190;-86
2022/07/27 06:09:11;;;;;;;4.07;0.90;;;19.20;1.00;;;;;;5018525;28;21066;-85
2022/07/27 06:11:37;;;;;;;5.15;1.38;;;19.10;95.30;;;;;;5017033;28;20210;-86
2022/07/27 06:14:02;;;;;;;3.92;1.23;;;18.70;1.00;;;;;;5016731;28;20191;-86
2022/07/27 06:16:28;;;;;;;2.83;1.13;;;18.40;99.90;;;;;;5016455;28;20218;-86
2022/07/27 06:18:53;;;;;;;3.92;1.10;;;18.50;99.90;;;;;;5015814;28;20211;-87
2022/07/27 06:21:19;;;;;;;3.28;0.90;;;18.10;1.00;;;;;;5016606;28;20203;-85
2022/07/27 06:23:47;;;;;;;4.18;1.20;;;19.20;99.90;;;;;;5022772;28;20214;-84
2022/07/27 06:26:12;;;;;;;3.63;1.02;;;19.20;1.00;;;;;;5016043;28;20274;-85
2022/07/27 06:28:38;;;;;;;4.80;1.20;;;18.80;99.90;;;;;;5019840;28;20202;-80
2022/07/27 06:31:04;;;;;;;3.85;0.93;;;18.30;1.00;;;;;;5022373;28;20235;-80
2022/07/27 06:33:30;;;;;;;3.50;1.00;;;18.60;99.90;;;;;;5029546;28;20179;-82
2022/07/27 06:35:59;;;;;;;3.33;1.08;;;18.70;99.90;;;;;;5017833;28;20207;-82
2022/07/27 06:38:27;;;;;;;4.70;1.30;;;18.70;99.90;;;;;;5018239;28;20187;-84
2022/07/27 06:40:53;;;;;;;4.53;1.40;;;18.70;99.90;;;;;;5017362;28;20211;-80
2022/07/27 06:43:24;;;;;;;3.17;1.05;;;19.10;92.00;;;;;;5020284;28;20172;-82
2022/07/27 06:45:51;;;;;;;2.47;1.05;;;18.90;75.50;;;;;;5020117;28;20230;-82
2022/07/27 06:48:17;;;;;;;5.07;1.33;;;19.10;99.90;;;;;;5021729;28;20206;-83
2022/07/27 06:50:42;;;;;;;6.00;1.33;;;20.20;99.90;;;;;;5019878;28;20279;-82
2022/07/27 06:53:08;;;;;;;3.13;0.88;;;19.00;1.00;;;;;;5016656;28;20180;-79
2022/07/27 06:55:34;;;;;;;2.60;1.20;;;20.10;1.00;;;;;;5018762;28;20211;-82
2022/07/27 06:57:59;;;;;;;3.75;1.08;;;19.20;1.00;;;;;;5017349;28;20195;-81
2022/07/27 07:00:25;;;;;;;3.58;1.00;;;19.90;1.00;;;;;;5017977;28;20593;-80
2022/07/27 07:03:02;;;;;;;3.80;1.10;;;19.60;1.00;;;;;;5019235;28;20194;-83
2022/07/27 07:05:28;;;;;;;4.72;1.10;;;19.00;99.90;;;;;;5020528;28;20182;-82
2022/07/27 07:07:55;;;;;;;2.85;1.20;;;20.20;99.90;;;;;;5028787;28;20187;-82
2022/07/27 07:10:22;;;;;;;3.10;1.17;;;20.10;1.00;;;;;;5026724;28;20195;-81
2022/07/27 07:12:48;;;;;;;4.50;0.95;;;19.40;1.00;;;;;;5018837;28;20211;-83
2022/07/27 07:15:15;;;;;;;3.08;0.82;;;19.90;99.90;;;;;;5019199;28;20206;-80
2022/07/27 07:17:41;;;;;;;2.33;0.93;;;19.80;99.90;;;;;;5019419;28;20171;-83
2022/07/27 07:20:07;;;;;;;5.22;1.40;;;19.70;99.90;;;;;;5018318;28;20180;-83
2022/07/27 07:22:33;;;;;;;4.65;1.20;;;19.80;99.90;;;;;;5019099;28;20222;-80
2022/07/27 07:24:59;;;;;;;3.40;0.90;;;20.00;99.90;;;;;;5018653;28;20226;-82
2022/07/27 07:27:26;;;;;;;3.15;1.00;;;20.40;99.90;;;;;;5019223;28;20179;-80
2022/07/27 07:29:52;;;;;;;2.92;1.05;;;19.80;99.90;;;;;;5016377;28;20259;-80
2022/07/27 07:32:21;;;;;;;3.78;1.10;;;19.70;99.90;;;;;;5017777;28;20227;-81
2022/07/27 07:34:48;;;;;;;3.75;1.10;;;19.50;99.90;;;;;;5017046;28;20207;-79
2022/07/27 07:37:14;;;;;;;2.63;1.02;;;19.60;99.90;;;;;;5016168;28;20183;-79
2022/07/27 07:39:40;;;;;;;5.03;1.10;;;19.50;99.90;;;;;;5015621;28;20214;-81
2022/07/27 07:42:06;;;;;;;3.42;0.93;;;20.30;99.90;;;;;;5015363;28;20209;-80
2022/07/27 07:44:31;;;;;;;2.95;0.80;;;19.20;1.00;;;;;;5015517;28;20202;-82
2022/07/27 07:46:57;;;;;;;3.60;0.95;;;20.20;99.90;;;;;;5017163;28;20176;-80
2022/07/27 07:49:22;;;;;;;3.63;1.33;;;19.90;99.90;;;;;;5019090;28;20605;-80
2022/07/27 07:51:48;;;;;;;2.90;0.98;;;19.90;99.90;;;;;;5019688;28;20203;-82
2022/07/27 07:54:13;;;;;;;2.35;0.70;;;20.30;99.90;;;;;;5019953;28;20183;-83
2022/07/27 07:56:39;;;;;;;2.78;0.90;;;19.80;99.90;;;;;;5019258;28;20264;-82
2022/07/27 07:59:04;;;;;;;3.33;1.00;;;19.20;99.90;;;;;;5020469;28;20187;-80
2022/07/27 08:01:30;;;;;;;2.20;0.63;;;19.20;30.20;;;;;;5020516;28;20219;-83
2022/07/27 08:03:55;;;;;;;3.17;1.10;;;20.20;99.90;;;;;;5019588;28;20191;-81
2022/07/27 08:06:21;;;;;;;3.42;0.80;;;20.10;99.90;;;;;;5018200;28;20206;-82
2022/07/27 08:08:47;;;;;;;3.40;1.15;;;19.90;10.80;;;;;;5014634;28;20180;-80
2022/07/27 08:11:12;;;;;;;2.53;1.00;;;19.90;1.00;;;;;;5018111;28;20239;-82
2022/07/27 08:13:38;;;;;;;4.32;1.00;;;20.70;1.00;;;;;;5017653;28;20242;-82
2022/07/27 08:16:04;;;;;;;1.33;0.70;;;19.80;1.00;;;;;;5011458;28;20218;-85
2022/07/27 08:18:31;;;;;;;3.22;1.00;;;20.00;14.50;;;;;;5009352;28;20219;-83
2022/07/27 08:20:57;;;;;;;4.45;0.80;;;19.20;1.00;;;;;;5012089;28;20207;-82
2022/07/27 08:23:22;;;;;;;1.98;0.90;;;19.40;1.00;;;;;;5024570;28;20195;-83
2022/07/27 08:25:48;;;;;;;2.95;0.95;;;20.10;1.00;;;;;;5015933;28;20251;-82
2022/07/27 08:28:14;;;;;;;4.85;1.00;;;20.40;1.00;;;;;;5016647;28;20192;-83
2022/07/27 08:30:39;;;;;;;2.80;0.90;;;20.30;1.00;;;;;;5016827;28;20188;-83
2022/07/27 08:33:05;;;;;;;2.25;0.75;;;19.50;1.00;;;;;;5015858;28;20207;-84
2022/07/27 08:35:33;;;;;;;3.95;1.45;;;20.60;1.00;;;;;;5014265;28;20214;-84
2022/07/27 08:38:00;;;;;;;2.45;0.80;;;20.00;99.90;;;;;;5023094;28;20175;-82
2022/07/27 08:40:26;;;;;;;1.67;0.90;;;19.90;99.90;;;;;;5014190;28;20176;-82
2022/07/27 08:42:52;;;;;;;3.28;1.17;;;19.90;99.90;;;;;;5015549;28;20192;-81
2022/07/27 08:45:18;;;;;;;1.98;0.70;;;20.00;99.90;;;;;;5016182;28;20226;-84
2022/07/27 08:47:44;;;;;;;5.00;1.05;;;19.70;99.90;;;;;;5023786;28;20298;-84
2022/07/27 08:50:22;;;;;;;4.22;1.05;;;21.10;99.90;;;;;;5017155;28;20183;-83
2022/07/27 08:53:04;;;;;;;2.05;0.85;;;19.80;99.90;;;;;;5026877;28;20211;-82
2022/07/27 08:55:33;;;;;;;2.20;0.65;;;19.70;99.90;;;;;;5015519;28;20665;-82
2022/07/27 08:57:59;;;;;;;3.75;0.80;;;19.50;99.90;;;;;;5018569;28;20227;-83
2022/07/27 09:00:26;;;;;;;2.28;0.80;;;19.10;99.90;;;;;;5021612;28;20176;-84
2022/07/27 09:02:53;;;;;;;3.13;0.82;;;18.90;99.90;;;;;;5023720;28;20619;-84
2022/07/27 09:05:19;;;;;;;2.17;0.77;;;18.80;1.00;;;;;;5023296;28;20245;-81
2022/07/27 09:07:44;;;;;;;3.92;0.95;;;19.50;99.90;;;;;;5022898;28;20569;-82
2022/07/27 09:10:11;;;;;;;1.85;0.60;;;19.80;99.90;;;;;;5021434;28;20186;-84
2022/07/27 09:12:37;;;;;;;1.45;0.52;;;21.30;99.90;;;;;;5020915;28;20902;-85
2022/07/27 09:15:10;;;;;;;1.13;0.60;;;21.40;99.90;;;;;;5020024;28;20218;-83
2022/07/27 09:17:36;;;;;;;3.75;0.80;;;20.50;11.80;;;;;;5022135;28;20458;-82
2022/07/27 09:20:11;;;;;;;1.98;0.65;;;20.50;1.00;;;;;;5019750;28;20188;-84
2022/07/27 09:22:44;;;;;;;1.98;0.68;;;20.40;1.00;;;;;;5025213;28;20199;-83
2022/07/27 09:25:15;;;;;;;1.95;0.60;;;20.20;1.00;;;;;;5016736;28;20199;-82
2022/07/27 09:27:42;;;;;;;2.33;0.63;;;20.10;1.00;;;;;;5009946;28;20826;-83
2022/07/27 09:30:15;;;;;;;3.42;1.00;;;20.30;1.00;;;;;;5012635;28;20187;-81
2022/07/27 09:32:59;;;;;;;6.05;1.10;;;20.70;1.00;;;;;;5013070;28;20573;-84
2022/07/27 09:35:33;;;;;;;3.05;0.90;;;20.40;1.00;;;;;;5011682;28;20218;-85
2022/07/27 09:38:17;;;;;;;3.05;0.93;;;20.80;1.00;;;;;;5013868;28;20202;-83
2022/07/27 09:40:45;;;;;;;4.00;1.10;;;20.60;1.00;;;;;;5016036;28;20267;-81
2022/07/27 09:43:12;;;;;;;3.05;1.15;;;20.50;1.00;;;;;;5011419;28;20183;-83
2022/07/27 09:45:42;;;;;;;2.47;0.60;;;20.90;1.00;;;;;;5020272;28;20184;-81
2022/07/27 09:48:19;;;;;;;2.97;0.90;;;20.60;1.00;;;;;;5018434;28;20284;-79
2022/07/27 09:51:07;;;;;;;1.60;0.80;;;20.60;1.00;;;;;;5018551;28;20446;-80
2022/07/27 09:53:33;;;;;;;2.55;1.00;;;20.50;1.00;;;;;;5018837;28;20188;-81
2022/07/27 09:56:12;;;;;;;1.58;0.82;;;21.50;1.00;;;;;;5019805;28;20238;-80
2022/07/27 09:58:38;;;;;;;3.50;0.80;;;20.60;1.00;;;;;;5014677;28;20278;-81
2022/07/27 10:01:06;;;;;;;3.83;0.90;;;20.60;1.00;;;;;;5018358;28;20199;-81
2022/07/27 10:03:33;;;;;;;2.42;0.80;;;20.60;1.00;;;;;;5023540;28;20183;-82
2022/07/27 10:06:02;;;;;;;4.10;1.10;;;20.60;1.00;;;;;;5023469;28;20216;-82
2022/07/27 10:08:29;;;;;;;5.28;1.13;;;20.40;1.00;;;;;;5032026;28;20266;-81
2022/07/27 10:10:56;;;;;;;3.70;1.10;;;20.20;1.00;;;;;;5004395;28;20212;-81
2022/07/27 10:13:22;;;;;;;3.67;0.85;;;21.20;1.00;;;;;;5023792;28;20186;-81
2022/07/27 10:15:48;;;;;;;5.80;1.17;;;20.30;1.00;;;;;;5021725;28;21239;-82
2022/07/27 10:18:28;;;;;;;2.95;0.80;;;21.60;1.00;;;;;;5022448;28;20179;-85
2022/07/27 10:21:34;;;;;;;2.45;1.23;;;20.50;1.00;;;;;;5030261;28;20728;-83
2022/07/27 10:24:28;;;;;;;6.53;1.23;;;20.50;1.00;;;;;;5023982;28;20678;-82
2022/07/27 10:26:53;;;;;;;2.95;0.82;;;20.80;1.00;;;;;;5026449;28;20251;-82
2022/07/27 10:29:23;;;;;;;2.63;1.00;;;21.20;1.00;;;;;;5025994;28;20180;-81
2022/07/27 10:31:55;;;;;;;4.70;1.20;;;21.40;1.00;;;;;;5009387;28;20281;-83
2022/07/27 10:34:42;;;;;;;2.63;1.20;;;21.30;1.00;;;;;;5027176;28;20175;-84
2022/07/27 10:38:20;;;;;;;2.58;1.00;;;21.10;1.00;;;;;;5003489;28;20290;-84
2022/07/27 10:41:22;;;;;;;2.78;0.93;;;20.90;1.00;;;;;;4958671;28;20272;-86
2022/07/27 10:43:50;;;;;;;4.43;0.90;;;20.80;1.00;;;;;;5041663;28;20195;-82
2022/07/27 10:46:21;;;;;;;2.25;0.90;;;21.00;1.00;;;;;;5030538;28;20180;-83
2022/07/27 10:48:53;;;;;;;2.03;0.80;;;21.30;1.00;;;;;;5025142;28;20675;-85
2022/07/27 10:51:34;;;;;;;2.65;0.90;;;21.50;1.00;;;;;;5023559;28;20223;-83
2022/07/27 10:54:43;;;;;;;2.92;0.80;;;21.50;1.00;;;;;;5026095;28;20175;-85
2022/07/27 10:57:27;;;;;;;2.20;1.00;;;21.40;1.00;;;;;;5042738;28;20183;-85
2022/07/27 10:59:53;;;;;;;2.88;0.73;;;21.10;1.00;;;;;;5027599;28;21262;-81
2022/07/27 11:02:37;;;;;;;6.32;1.02;;;21.00;1.00;;;;;;5026908;28;20200;-83
2022/07/27 11:05:06;;;;;;;5.13;0.80;;;21.10;1.00;;;;;;5014757;28;20199;-83
2022/07/27 11:08:11;;;;;;;4.60;1.00;;;21.30;1.00;;;;;;5027472;28;20175;-85
2022/07/27 11:10:52;;;;;;;2.05;0.70;;;21.80;1.00;;;;;;5026950;28;20182;-84
2022/07/27 11:13:29;;;;;;;2.78;0.82;;;21.80;1.00;;;;;;5021877;28;20182;-85
2022/07/27 11:16:07;;;;;;;3.20;0.90;;;21.80;1.00;;;;;;5028290;28;20290;-84
2022/07/27 11:18:45;;;;;;;2.35;1.02;;;21.40;1.00;;;;;;5037195;28;20218;-84
2022/07/27 11:22:02;;;;;;;3.47;0.90;;;20.80;1.00;;;;;;5031021;28;20219;-84
2022/07/27 11:24:43;;;;;;;4.30;0.90;;;20.30;99.90;;;;;;4919967;29;20211;-84
2022/07/27 11:28:40;;;;;;;5.22;1.05;;;20.30;1.00;;;;;;4922871;28;20214;-84
2022/07/27 11:31:22;;;;;;;2.47;0.90;;;20.60;1.00;;;;;;4994542;28;20235;-84
2022/07/27 11:34:19;;;;;;;2.35;0.70;;;21.10;1.00;;;;;;4991404;28;20200;-85
2022/07/27 11:37:01;;;;;;;2.95;0.82;;;21.50;1.00;;;;;;4978641;28;20231;-84
2022/07/27 11:40:33;;;;;;;3.10;0.80;;;21.90;99.90;;;;;;4987962;28;20193;-83
2022/07/27 11:43:13;;;;;;;2.47;0.65;;;22.00;99.90;;;;;;4977184;28;20192;-83
2022/07/27 11:46:18;;;;;;;2.47;0.98;;;22.50;99.90;;;;;;4992159;28;20243;-84
2022/07/27 11:53:05;;;;;;;2.35;0.90;;;23.20;99.90;;;;;;4954777;29;20273;-83
2022/07/27 11:59:58;;;;;;;1.50;0.70;;;23.50;99.90;;;;;;4954328;29;20196;-82
2022/07/27 12:03:11;;;;;;;1.23;0.80;;;23.30;99.90;;;;;;4950113;28;20232;-84
2022/07/27 12:06:27;;;;;;;2.13;0.80;;;23.30;99.90;;;;;;4932548;29;20174;-84
2022/07/27 12:09:42;;;;;;;2.92;0.90;;;23.10;99.90;;;;;;4947092;29;20201;-84
2022/07/27 12:12:36;;;;;;;1.75;0.73;;;23.40;99.90;;;;;;4946646;29;20217;-85
2022/07/27 12:15:25;;;;;;;2.05;0.73;;;22.20;99.90;;;;;;4974690;28;20310;-84
2022/07/27 12:18:06;;;;;;;1.75;0.70;;;21.70;99.90;;;;;;4990764;28;20171;-83
2022/07/27 12:21:00;;;;;;;2.60;0.70;;;21.60;99.90;;;;;;5015227;28;20191;-86
2022/07/27 12:24:15;;;;;;;2.80;0.70;;;21.60;99.90;;;;;;5040835;28;20180;-86
2022/07/27 12:27:01;;;;;;;2.30;0.80;;;21.80;99.90;;;;;;4964461;28;20272;-81
2022/07/27 12:29:26;;;;;;;1.42;0.65;;;22.90;99.90;;;;;;5016149;28;20183;-81
2022/07/27 12:31:53;;;;;;;2.30;0.80;;;21.90;99.90;;;;;;5015245;28;20208;-81
2022/07/27 12:34:18;;;;;;;1.60;0.52;;;21.90;99.90;;;;;;5015436;28;20203;-81
2022/07/27 12:36:44;;;;;;;3.03;0.60;;;22.20;99.90;;;;;;5016397;28;20237;-81
2022/07/27 12:39:28;;;;;;;5.72;1.23;;;22.00;99.90;;;;;;5017334;28;20186;-81
2022/07/27 12:42:04;;;;;;;2.30;0.70;;;22.20;99.90;;;;;;5014643;28;20204;-81
2022/07/27 12:44:35;;;;;;;2.97;0.80;;;22.50;99.90;;;;;;5015895;28;20190;-84
2022/07/27 12:47:39;;;;;;;3.45;0.75;;;22.50;99.90;;;;;;5017120;28;20432;-84
2022/07/27 12:50:13;;;;;;;1.98;0.90;;;22.40;99.90;;;;;;5021862;28;20198;-84
2022/07/27 12:52:50;;;;;;;1.33;0.60;;;22.10;99.90;;;;;;5021788;28;20209;-86
2022/07/27 12:55:17;;;;;;;1.98;0.60;;;22.20;99.90;;;;;;5027043;28;20233;-85
2022/07/27 12:57:44;;;;;;;2.10;0.70;;;22.30;99.90;;;;;;5019681;28;20183;-83
2022/07/27 13:00:13;;;;;;;3.47;0.90;;;22.40;99.90;;;;;;5018339;28;20226;-86
2022/07/27 13:02:39;;;;;;;1.77;0.73;;;22.50;99.90;;;;;;5021752;28;20203;-86
2022/07/27 13:05:07;;;;;;;2.38;0.90;;;22.60;99.90;;;;;;5020021;28;20179;-86
2022/07/27 13:07:33;;;;;;;3.22;0.80;;;22.80;99.90;;;;;;5019422;28;20192;-85
2022/07/27 13:09:59;;;;;;;1.65;0.80;;;22.80;99.90;;;;;;5020107;28;20208;-84
2022/07/27 13:12:24;;;;;;;2.28;0.70;;;23.90;99.90;;;;;;5021498;28;20306;-86
2022/07/27 13:14:50;;;;;;;1.85;0.90;;;23.70;99.90;;;;;;5017594;28;20188;-82
2022/07/27 13:17:16;;;;;;;3.13;0.88;;;23.90;99.90;;;;;;5008965;28;20202;-82
2022/07/27 13:19:42;;;;;;;7.10;1.70;;;23.30;99.90;;;;;;5012489;28;20198;-83
2022/07/27 13:22:07;;;;;;;4.65;1.13;;;22.90;99.90;;;;;;5018076;28;20257;-81